Time;durP1;ratioP1;P1;durP2;ratioP2;P2;SDS_P1;SDS_P2;PMS_P1;PMS_P2;Temp;Humidity;BMP_temperature;BMP_pressure;BME280_temperature;BME280_humidity;BME280_pressure;Samples;Min_cycle;Max_cycle;Signal;HPM_P1;HPM_P2
2023/07/09 00:02:04;;;;;;;6.50;5.10;;;;;;;16.05;68.77;100967.89;105460;1258;83119;-46
2023/07/09 00:04:33;;;;;;;5.60;4.60;;;;;;;15.97;68.94;100962.44;105472;1258;74027;-47
2023/07/09 00:07:03;;;;;;;8.20;4.90;;;;;;;15.94;69.14;100964.19;105428;1257;70028;-46
2023/07/09 00:09:33;;;;;;;7.40;4.70;;;;;;;15.93;69.48;100964.96;105484;1258;69878;-47
2023/07/09 00:12:02;;;;;;;7.60;5.40;;;;;;;15.93;69.65;100967.06;105638;1253;74225;-47
2023/07/09 00:14:30;;;;;;;6.70;4.90;;;;;;;15.93;69.84;100970.61;105483;1257;83620;-46
2023/07/09 00:16:59;;;;;;;8.20;5.00;;;;;;;15.92;70.04;100971.21;105401;1259;72763;-46
2023/07/09 00:19:29;;;;;;;7.00;5.00;;;;;;;15.92;70.00;100973.98;105647;1254;70521;-46
2023/07/09 00:21:57;;;;;;;10.40;5.80;;;;;;;15.93;70.18;100977.12;105497;1253;69901;-47
2023/07/09 00:24:26;;;;;;;6.70;5.40;;;;;;;15.92;70.03;100973.65;105666;1253;73177;-46
2023/07/09 00:26:55;;;;;;;7.90;5.80;;;;;;;15.89;69.97;100974.65;105561;1258;83131;-46
2023/07/09 00:29:23;;;;;;;7.40;5.70;;;;;;;15.87;70.27;100978.33;105433;1257;73887;-47
2023/07/09 00:31:52;;;;;;;8.20;5.70;;;;;;;15.88;70.46;100979.15;105137;1253;70074;-46
2023/07/09 00:34:21;;;;;;;12.40;6.30;;;;;;;15.88;70.46;100977.73;105427;1253;69973;-46
2023/07/09 00:36:51;;;;;;;11.00;6.80;;;;;;;15.83;69.91;100976.88;105529;1258;73826;-47
2023/07/09 00:39:21;;;;;;;8.00;6.20;;;;;;;15.86;69.64;100976.75;105460;1253;83753;-46
2023/07/09 00:41:50;;;;;;;12.20;6.50;;;;;;;15.90;70.04;100975.70;105438;1257;71624;-47
2023/07/09 00:44:19;;;;;;;7.60;6.50;;;;;;;15.88;70.31;100974.02;105442;1257;70097;-46
2023/07/09 00:46:47;;;;;;;9.70;6.30;;;;;;;15.84;70.24;100972.10;105462;1257;69919;-47
2023/07/09 00:49:36;;;;;;;11.00;7.10;;;;;;;15.77;69.75;100978.09;105483;1253;73078;-47
2023/07/09 00:52:35;;;;;;;8.60;6.50;;;;;;;15.81;70.07;100976.64;105457;1253;82482;-47
2023/07/09 00:55:16;;;;;;;8.70;6.50;;;;;;;15.84;70.43;100980.73;105498;1253;73780;-47
2023/07/09 00:57:49;;;;;;;10.20;7.20;;;;;;;15.80;70.37;100979.69;105424;1257;69981;-47
2023/07/09 01:00:20;;;;;;;9.90;6.80;;;;;;;15.79;70.19;100977.44;105432;1253;69885;-47
2023/07/09 01:02:48;;;;;;;9.70;6.80;;;;;;;15.75;69.95;100977.67;105270;1259;73041;-48
2023/07/09 01:05:19;;;;;;;10.80;6.80;;;;;;;15.69;70.07;100976.88;105461;1258;83261;-46
2023/07/09 01:07:48;;;;;;;10.80;7.10;;;;;;;15.60;70.14;100978.88;105434;1258;73943;-47
2023/07/09 01:10:18;;;;;;;12.30;7.60;;;;;;;15.51;70.22;100980.91;105494;1253;70511;-46
2023/07/09 01:12:49;;;;;;;7.80;6.50;;;;;;;15.45;70.48;100986.34;105225;1259;69936;-47
2023/07/09 01:15:18;;;;;;;8.70;6.30;;;;;;;15.38;70.76;100985.94;105270;1258;73109;-47
2023/07/09 01:17:47;;;;;;;8.40;6.60;;;;;;;15.31;71.10;100981.31;105452;1256;83570;-46
2023/07/09 01:20:20;;;;;;;9.30;7.20;;;;;;;15.26;71.11;100977.87;105436;1257;73431;-46
2023/07/09 01:22:54;;;;;;;12.10;6.60;;;;;;;15.19;71.11;100979.27;105696;1253;70512;-46
2023/07/09 01:25:23;;;;;;;10.90;7.00;;;;;;;15.14;71.40;100978.79;105277;1256;69974;-46
2023/07/09 01:27:52;;;;;;;9.80;7.30;;;;;;;15.09;71.56;100978.33;105652;1255;74126;-46
2023/07/09 01:30:28;;;;;;;9.40;7.00;;;;;;;15.06;71.81;100976.55;105507;1253;83805;-46
2023/07/09 01:32:59;;;;;;;10.40;7.10;;;;;;;15.00;71.84;100976.46;105754;1258;72819;-47
2023/07/09 01:35:30;;;;;;;10.20;7.00;;;;;;;14.95;71.97;100976.52;105441;1257;70021;-47
2023/07/09 01:37:59;;;;;;;8.80;6.70;;;;;;;14.91;72.15;100977.41;105411;1259;69929;-46
2023/07/09 01:40:28;;;;;;;9.20;6.60;;;;;;;14.85;72.30;100977.32;105443;1259;73166;-47
2023/07/09 01:43:06;;;;;;;9.10;6.70;;;;;;;14.83;72.61;100983.40;105655;1257;83396;-46
2023/07/09 01:45:36;;;;;;;8.40;6.80;;;;;;;14.81;72.79;100986.48;105390;1259;73477;-47
2023/07/09 01:48:06;;;;;;;12.10;7.60;;;;;;;14.80;72.61;100989.70;105451;1253;69863;-47
2023/07/09 01:50:35;;;;;;;8.30;6.80;;;;;;;14.84;72.55;100991.59;105690;1257;69888;-48
2023/07/09 01:53:03;;;;;;;12.00;7.10;;;;;;;14.92;72.88;100990.70;105447;1255;73740;-47
2023/07/09 01:55:32;;;;;;;8.40;6.60;;;;;;;14.99;73.23;100989.55;105691;1257;82504;-46
2023/07/09 01:58:05;;;;;;;9.20;7.40;;;;;;;15.01;72.92;100994.02;105234;1258;72949;-46
2023/07/09 02:00:34;;;;;;;9.90;7.00;;;;;;;15.01;72.80;100996.48;105240;1255;69987;-47
2023/07/09 02:03:04;;;;;;;;;;;;;;;15.05;72.73;100990.33;105421;1257;69980;-47
2023/07/09 02:05:33;;;;;;;11.10;7.20;;;;;;;15.07;72.96;100993.90;105499;1256;73853;-47
2023/07/09 02:08:02;;;;;;;14.20;7.60;;;;;;;15.06;72.82;100996.43;105485;1254;82568;-47
2023/07/09 02:10:31;;;;;;;9.20;6.80;;;;;;;15.06;72.85;100994.98;105422;1255;72817;-47
2023/07/09 02:13:00;;;;;;;12.20;7.10;;;;;;;15.06;72.52;100990.77;105443;1255;70002;-46
2023/07/09 02:15:30;;;;;;;9.90;7.20;;;;;;;15.08;72.47;100999.35;105679;1257;69943;-46
2023/07/09 02:18:01;;;;;;;8.90;6.60;;;;;;;15.08;72.51;101004.75;105453;1258;72867;-47
2023/07/09 02:20:30;;;;;;;7.40;6.60;;;;;;;15.10;72.38;101002.39;105437;1256;82554;-46
2023/07/09 02:22:58;;;;;;;10.90;7.40;;;;;;;15.11;72.37;101006.58;105539;1259;73470;-48
2023/07/09 02:25:27;;;;;;;14.40;7.40;;;;;;;15.16;72.70;101003.33;105366;1258;69978;-47
2023/07/09 02:27:55;;;;;;;7.90;6.70;;;;;;;15.17;72.65;101007.70;105407;1253;69901;-46
2023/07/09 02:30:24;;;;;;;8.40;6.60;;;;;;;15.12;72.69;101012.32;105304;1254;179764;-47
2023/07/09 02:32:54;;;;;;;10.50;7.10;;;;;;;15.09;72.73;101016.66;105514;1259;83005;-47
2023/07/09 02:35:22;;;;;;;;;;;;;;;15.10;72.64;101008.03;105657;1254;73826;-47
2023/07/09 02:37:50;;;;;;;9.70;6.20;;;;;;;15.09;72.38;101008.95;105380;1255;69928;-46
2023/07/09 02:40:19;;;;;;;11.10;7.40;;;;;;;15.08;72.38;101015.34;105378;1258;70092;-46
2023/07/09 02:42:47;;;;;;;9.30;6.40;;;;;;;15.06;72.60;101011.21;105464;1257;73062;-47
2023/07/09 02:45:17;;;;;;;7.90;6.70;;;;;;;15.05;72.81;101010.70;105443;1258;83488;-47
2023/07/09 02:47:47;;;;;;;10.80;6.90;;;;;;;15.06;72.78;101011.05;105335;1261;71426;-46
2023/07/09 02:50:16;;;;;;;10.40;6.20;;;;;;;15.07;73.06;101011.70;105292;1258;70061;-47
2023/07/09 02:52:44;;;;;;;8.40;6.70;;;;;;;15.01;72.89;101014.25;105320;1258;69929;-47
2023/07/09 02:55:13;;;;;;;8.70;6.70;;;;;;;14.93;72.65;101014.58;105467;1259;73974;-48
2023/07/09 02:57:41;;;;;;;11.20;7.00;;;;;;;14.92;72.55;101014.50;105397;1257;83214;-47
2023/07/09 03:00:10;;;;;;;12.30;6.70;;;;;;;14.92;72.62;101016.56;105379;1253;74023;-47
2023/07/09 03:02:38;;;;;;;9.10;7.30;;;;;;;14.93;72.82;101023.02;105606;1258;70011;-48
2023/07/09 03:05:10;;;;;;;9.30;7.00;;;;;;;14.93;72.61;101027.43;105402;1258;69973;-47
2023/07/09 03:07:39;;;;;;;8.10;6.50;;;;;;;14.90;72.54;101023.90;105258;1259;74394;-47
2023/07/09 03:10:07;;;;;;;12.20;6.90;;;;;;;14.90;72.78;101022.81;105388;1257;82572;-47
2023/07/09 03:12:36;;;;;;;12.90;7.50;;;;;;;14.92;72.79;101019.21;105393;1254;73358;-47
2023/07/09 03:15:05;;;;;;;10.40;6.90;;;;;;;14.93;72.89;101019.85;105406;1257;70733;-48
2023/07/09 03:17:33;;;;;;;9.80;7.10;;;;;;;14.94;73.25;101014.04;105464;1259;69882;-46
2023/07/09 03:20:01;;;;;;;10.00;6.40;;;;;;;14.95;73.38;101016.27;105186;1259;74279;-47
2023/07/09 03:22:29;;;;;;;9.90;6.60;;;;;;;14.93;73.11;101017.75;105403;1255;83465;-47
2023/07/09 03:24:58;;;;;;;8.30;6.40;;;;;;;14.95;73.11;101018.92;105395;1258;72804;-48
2023/07/09 03:27:26;;;;;;;9.20;7.20;;;;;;;14.99;73.46;101020.33;105191;1257;69863;-47
2023/07/09 03:29:54;;;;;;;9.90;6.80;;;;;;;15.01;73.80;101021.98;105205;1260;70036;-47
2023/07/09 03:32:22;;;;;;;8.40;6.70;;;;;;;15.05;73.97;101020.58;105439;1256;73230;-47
2023/07/09 03:34:53;;;;;;;8.20;6.70;;;;;;;15.07;73.90;101022.09;105366;1259;83772;-46
2023/07/09 03:37:21;;;;;;;10.90;6.30;;;;;;;15.06;74.13;101018.25;105540;1254;74181;-47
2023/07/09 03:39:49;;;;;;;7.70;6.90;;;;;;;15.07;74.15;101014.13;105409;1259;70593;-47
2023/07/09 03:42:18;;;;;;;9.40;6.40;;;;;;;15.05;73.96;101010.05;105463;1266;69983;-46
2023/07/09 03:44:46;;;;;;;9.60;6.90;;;;;;;15.03;73.94;101019.43;105435;1258;74420;-47
2023/07/09 03:47:14;;;;;;;9.40;6.70;;;;;;;15.09;74.29;101029.17;105512;1256;83308;-46
2023/07/09 03:49:43;;;;;;;8.10;5.80;;;;;;;15.15;74.60;101032.05;105441;1257;72200;-46
2023/07/09 03:52:11;;;;;;;9.70;6.70;;;;;;;15.23;74.76;101023.45;105422;1259;69987;-47
2023/07/09 03:54:39;;;;;;;8.90;6.60;;;;;;;15.31;74.95;101022.70;105402;1255;70006;-47
2023/07/09 03:57:08;;;;;;;9.10;6.80;;;;;;;15.34;74.62;101026.10;105381;1266;73525;-46
2023/07/09 03:59:37;;;;;;;9.60;7.20;;;;;;;15.37;74.31;101027.89;105390;1257;82471;-46
2023/07/09 04:02:07;;;;;;;8.40;6.80;;;;;;;15.43;74.50;101021.61;105442;1254;73472;-47
2023/07/09 04:04:35;;;;;;;9.40;7.20;;;;;;;15.49;74.60;101028.20;105415;1253;70261;-46
2023/07/09 04:07:03;;;;;;;11.20;6.50;;;;;;;15.53;74.43;101029.60;105509;1256;69987;-47
2023/07/09 04:09:32;;;;;;;9.40;7.10;;;;;;;15.57;74.23;101023.40;105595;1257;72824;-46
2023/07/09 04:12:01;;;;;;;7.40;6.60;;;;;;;15.63;74.35;101022.25;105426;1258;82541;-47
2023/07/09 04:14:29;;;;;;;11.30;8.00;;;;;;;15.70;74.35;101032.16;105481;1258;73761;-48
2023/07/09 04:16:58;;;;;;;9.30;6.90;;;;;;;15.75;74.23;101035.45;105372;1258;69972;-47
2023/07/09 04:19:26;;;;;;;11.30;6.90;;;;;;;15.81;74.31;101020.19;105619;1254;69906;-46
2023/07/09 04:21:55;;;;;;;10.30;6.70;;;;;;;15.86;74.23;101022.92;105508;1256;74074;-46
2023/07/09 04:24:24;;;;;;;8.40;7.10;;;;;;;15.92;74.18;101027.38;105443;1257;82568;-48
2023/07/09 04:26:56;;;;;;;10.80;7.40;;;;;;;15.99;74.17;101031.64;105414;1258;73824;-46
2023/07/09 04:29:24;;;;;;;8.90;7.00;;;;;;;16.04;73.99;101028.92;105462;1258;69886;-47
2023/07/09 04:31:52;;;;;;;10.20;7.30;;;;;;;16.10;73.98;101027.38;105405;1258;70038;-46
2023/07/09 04:34:21;;;;;;;9.80;6.80;;;;;;;16.17;73.98;101028.12;105405;1254;73980;-47
2023/07/09 04:36:50;;;;;;;9.10;6.90;;;;;;;16.22;74.01;101029.09;105475;1257;82562;-47
2023/07/09 04:39:18;;;;;;;9.60;7.30;;;;;;;16.28;74.11;101028.60;105378;1257;72746;-47
2023/07/09 04:41:47;;;;;;;9.20;7.40;;;;;;;16.33;73.96;101036.83;105388;1257;69981;-47
2023/07/09 04:44:16;;;;;;;10.70;7.00;;;;;;;16.40;73.90;101038.21;105713;1256;69947;-47
2023/07/09 04:46:44;;;;;;;9.30;7.80;;;;;;;16.47;73.75;101034.66;105441;1258;74103;-47
2023/07/09 04:49:12;;;;;;;8.60;7.40;;;;;;;16.54;73.67;101044.04;105429;1259;83450;-46
2023/07/09 04:51:40;;;;;;;11.10;7.90;;;;;;;16.61;73.60;101042.95;105284;1257;73399;-48
2023/07/09 04:54:09;;;;;;;10.30;7.60;;;;;;;16.68;73.52;101044.53;105379;1254;70057;-48
2023/07/09 04:56:37;;;;;;;9.20;7.30;;;;;;;16.75;73.41;101049.81;105580;1257;69990;-47
2023/07/09 04:59:06;;;;;;;10.80;7.20;;;;;;;16.83;73.26;101048.89;105541;1255;74184;-46
2023/07/09 05:01:34;;;;;;;8.90;7.50;;;;;;;16.91;73.26;101047.03;105403;1257;83406;-47
2023/07/09 05:04:03;;;;;;;13.10;8.10;;;;;;;17.00;72.87;101047.09;105709;1256;73602;-47
2023/07/09 05:06:31;;;;;;;10.80;7.50;;;;;;;17.08;72.62;101054.60;105484;1259;69891;-46
2023/07/09 05:09:00;;;;;;;16.20;7.90;;;;;;;17.16;73.01;101060.00;105398;1256;70568;-47
2023/07/09 05:11:28;;;;;;;10.10;7.30;;;;;;;17.25;72.83;101059.19;105428;1254;74185;-48
2023/07/09 05:13:56;;;;;;;9.00;7.50;;;;;;;17.34;72.89;101059.05;105411;1256;83729;-47
2023/07/09 05:16:25;;;;;;;13.10;7.40;;;;;;;17.42;72.75;101058.95;105359;1254;72733;-47
2023/07/09 05:18:53;;;;;;;11.50;7.00;;;;;;;17.50;72.46;101058.36;105420;1253;69880;-46
2023/07/09 05:21:22;;;;;;;11.40;8.40;;;;;;;17.58;72.36;101062.13;105464;1255;69855;-46
2023/07/09 05:23:50;;;;;;;9.40;7.10;;;;;;;17.66;72.03;101055.17;105570;1254;73861;-46
2023/07/09 05:26:18;;;;;;;11.30;7.60;;;;;;;17.73;72.00;101063.61;105474;1257;83865;-46
2023/07/09 05:28:47;;;;;;;9.20;7.90;;;;;;;17.80;72.07;101065.70;105470;1254;73826;-45
2023/07/09 05:31:15;;;;;;;9.10;7.80;;;;;;;17.87;71.96;101064.56;105667;1257;69983;-47
2023/07/09 05:33:44;;;;;;;9.30;7.40;;;;;;;17.95;71.87;101072.45;105530;1258;70043;-47
2023/07/09 05:36:15;;;;;;;9.20;7.20;;;;;;;18.05;71.87;101076.66;105470;1254;74068;-47
2023/07/09 05:38:46;;;;;;;10.30;7.40;;;;;;;18.15;71.76;101078.01;106028;1254;83434;-47
2023/07/09 05:41:16;;;;;;;9.40;8.10;;;;;;;18.22;71.33;101083.95;105459;1255;71754;-49
2023/07/09 05:43:45;;;;;;;9.70;7.20;;;;;;;18.30;71.43;101082.66;105581;1257;69973;-49
2023/07/09 05:46:14;;;;;;;9.90;7.80;;;;;;;18.38;71.19;101082.31;105651;1258;70198;-48
2023/07/09 05:48:42;;;;;;;11.70;7.90;;;;;;;18.46;70.84;101079.19;105550;1254;72479;-48
2023/07/09 05:51:11;;;;;;;9.60;7.90;;;;;;;18.55;70.49;101073.77;105469;1254;83455;-48
2023/07/09 05:53:39;;;;;;;10.40;7.80;;;;;;;18.62;70.25;101079.35;105446;1258;73892;-48
2023/07/09 05:56:08;;;;;;;9.40;8.10;;;;;;;18.69;70.16;101076.05;105328;1255;69881;-48
2023/07/09 05:58:36;;;;;;;12.50;8.30;;;;;;;18.77;70.07;101080.24;105633;1257;69995;-47
2023/07/09 06:01:05;;;;;;;10.80;8.60;;;;;;;18.83;69.93;101082.16;105706;1257;73053;-47
2023/07/09 06:03:34;;;;;;;12.20;8.80;;;;;;;18.88;69.77;101088.95;105528;1258;82586;-47
2023/07/09 06:06:03;;;;;;;10.30;8.00;;;;;;;18.92;69.56;101091.36;105597;1253;73631;-47
2023/07/09 06:08:32;;;;;;;12.80;8.60;;;;;;;18.97;69.51;101089.65;105515;1254;70021;-48
2023/07/09 06:11:02;;;;;;;13.00;8.60;;;;;;;19.04;69.15;101094.89;105612;1254;70573;-47
2023/07/09 06:13:31;;;;;;;12.10;8.00;;;;;;;19.10;69.32;101096.43;105576;1254;73173;-46
2023/07/09 06:16:00;;;;;;;10.10;7.60;;;;;;;19.18;68.79;101095.63;105555;1257;83308;-48
2023/07/09 06:18:30;;;;;;;10.00;7.70;;;;;;;19.23;68.73;101094.80;105802;1258;73709;-47
2023/07/09 06:21:01;;;;;;;8.60;7.10;;;;;;;19.30;68.58;101100.36;105542;1257;70092;-47
2023/07/09 06:23:30;;;;;;;8.50;7.10;;;;;;;19.37;68.22;101102.21;105542;1257;69993;-47
2023/07/09 06:25:59;;;;;;;8.90;7.90;;;;;;;19.44;68.11;101103.19;105602;1257;74199;-47
2023/07/09 06:28:31;;;;;;;10.50;7.20;;;;;;;19.51;67.82;101106.66;105489;1257;82154;-47
2023/07/09 06:31:00;;;;;;;8.10;7.10;;;;;;;19.59;67.60;101105.81;105640;1254;72666;-47
2023/07/09 06:33:29;;;;;;;9.80;8.20;;;;;;;19.68;67.51;101105.29;105670;1257;69935;-47
2023/07/09 06:36:00;;;;;;;11.20;8.30;;;;;;;19.75;67.50;101103.38;105689;1257;69812;-48
2023/07/09 06:38:29;;;;;;;10.40;8.50;;;;;;;19.83;66.91;101099.45;105548;1256;74291;-49
2023/07/09 06:40:57;;;;;;;9.70;7.70;;;;;;;19.89;66.48;101100.52;105601;1257;83225;-46
2023/07/09 06:43:26;;;;;;;10.00;7.50;;;;;;;19.96;66.36;101094.91;105817;1254;73882;-47
2023/07/09 06:45:59;;;;;;;9.20;8.10;;;;;;;20.03;66.20;101094.98;105541;1253;70133;-47
2023/07/09 06:48:29;;;;;;;9.80;8.10;;;;;;;20.10;66.14;101093.69;105483;1254;69925;-47
2023/07/09 06:50:58;;;;;;;8.70;7.80;;;;;;;20.18;65.63;101092.93;105460;1257;71963;-46
2023/07/09 06:53:28;;;;;;;9.20;8.30;;;;;;;20.26;65.06;101086.55;105485;1257;83256;-49
2023/07/09 06:55:58;;;;;;;13.60;8.90;;;;;;;20.36;64.85;101084.66;105915;1257;72065;-46
2023/07/09 06:58:31;;;;;;;9.80;7.70;;;;;;;20.43;64.20;101080.11;105533;1254;69906;-46
2023/07/09 07:01:04;;;;;;;11.60;7.30;;;;;;;20.52;64.70;101077.37;105676;1257;70281;-46
2023/07/09 07:03:34;;;;;;;11.70;8.00;;;;;;;20.65;64.66;101073.32;105731;1257;74068;-46
2023/07/09 07:06:03;;;;;;;9.00;8.00;;;;;;;20.79;64.73;101066.84;105601;1258;83389;-46
2023/07/09 07:08:32;;;;;;;10.90;7.60;;;;;;;20.95;64.82;101070.90;105988;1254;72735;-47
2023/07/09 07:11:02;;;;;;;14.00;7.70;;;;;;;21.08;63.80;101070.67;105517;1254;69977;-46
2023/07/09 07:13:34;;;;;;;8.90;7.80;;;;;;;21.16;63.47;101064.95;105812;1254;70339;-46
2023/07/09 07:16:05;;;;;;;9.70;7.40;;;;;;;21.26;62.93;101065.37;105658;1254;73778;-46
2023/07/09 07:18:34;;;;;;;7.80;6.70;;;;;;;21.35;62.54;101065.55;105752;1257;83292;-46
2023/07/09 07:21:03;;;;;;;9.90;7.10;;;;;;;21.48;62.24;101064.34;105549;1254;73283;-45
2023/07/09 07:23:32;;;;;;;9.20;7.10;;;;;;;21.61;62.73;101068.20;105481;1254;69946;-46
2023/07/09 07:26:00;;;;;;;10.90;7.40;;;;;;;21.78;61.89;101063.02;105710;1253;69988;-46
2023/07/09 07:28:30;;;;;;;10.10;7.30;;;;;;;21.89;61.80;101063.98;105802;1253;73111;-46
2023/07/09 07:30:59;;;;;;;8.40;6.60;;;;;;;22.05;61.49;101064.95;105666;1254;82468;-46
2023/07/09 07:33:28;;;;;;;8.30;6.60;;;;;;;22.15;61.06;101062.21;105644;1254;74012;-46
2023/07/09 07:35:57;;;;;;;6.90;6.20;;;;;;;22.26;60.49;101062.45;105611;1257;69985;-48
2023/07/09 07:38:28;;;;;;;13.00;6.50;;;;;;;22.39;59.66;101061.31;105378;1261;70735;-46
2023/07/09 07:40:56;;;;;;;9.10;6.60;;;;;;;22.51;59.29;101060.09;105031;1264;74026;-45
2023/07/09 07:43:24;;;;;;;7.30;6.10;;;;;;;22.63;59.10;101062.28;105055;1265;82232;-46
2023/07/09 07:45:53;;;;;;;9.50;6.50;;;;;;;22.77;59.13;101063.79;105023;1262;73805;-46
2023/07/09 07:48:21;;;;;;;8.80;6.10;;;;;;;22.91;59.24;101063.71;104976;1263;70053;-46
2023/07/09 07:50:50;;;;;;;6.80;5.30;;;;;;;23.11;59.27;101065.58;105103;1262;70044;-46
2023/07/09 07:53:18;;;;;;;7.40;5.80;;;;;;;23.30;59.03;101070.62;105135;1264;73083;-46
2023/07/09 07:55:47;;;;;;;7.00;5.50;;;;;;;23.48;58.72;101069.23;105211;1261;83643;-46
2023/07/09 07:58:15;;;;;;;6.10;5.50;;;;;;;23.65;58.34;101067.81;105511;1258;73378;-46
2023/07/09 08:00:44;;;;;;;8.40;5.80;;;;;;;23.83;58.22;101068.30;105537;1254;70001;-46
2023/07/09 08:03:12;;;;;;;6.80;5.70;;;;;;;24.00;57.69;101068.88;105447;1257;69889;-46
2023/07/09 08:05:40;;;;;;;6.20;4.90;;;;;;;24.16;56.98;101075.91;105446;1257;73173;-45
2023/07/09 08:08:08;;;;;;;7.40;5.40;;;;;;;24.30;56.35;101065.33;105391;1257;82710;-46
2023/07/09 08:10:37;;;;;;;8.30;5.70;;;;;;;24.43;56.03;101067.41;105437;1257;73750;-45
2023/07/09 08:13:05;;;;;;;6.20;4.90;;;;;;;24.59;55.34;101066.70;105408;1253;69967;-47
2023/07/09 08:15:34;;;;;;;7.60;5.00;;;;;;;24.76;54.95;101071.38;105386;1255;70444;-46
2023/07/09 08:18:02;;;;;;;9.50;5.00;;;;;;;24.91;54.56;101070.29;105545;1256;73224;-45
2023/07/09 08:20:33;;;;;;;6.70;5.40;;;;;;;25.05;54.49;101066.05;105469;1257;83853;-47
2023/07/09 08:23:01;;;;;;;8.60;5.10;;;;;;;25.21;53.96;101069.31;105380;1254;72593;-46
2023/07/09 08:25:30;;;;;;;6.00;5.10;;;;;;;25.33;53.24;101064.51;105411;1253;69917;-46
2023/07/09 08:27:58;;;;;;;6.20;5.00;;;;;;;25.43;53.24;101069.68;105424;1256;70028;-46
2023/07/09 08:30:27;;;;;;;7.30;5.00;;;;;;;25.58;53.09;101072.50;105807;1254;74430;-46
2023/07/09 08:32:57;;;;;;;5.50;5.00;;;;;;;25.68;52.43;101071.41;105792;1253;82376;-46
2023/07/09 08:35:25;;;;;;;5.80;4.80;;;;;;;25.77;51.75;101068.61;105600;1254;74796;-46
2023/07/09 08:38:04;;;;;;;6.80;4.80;;;;;;;25.85;50.96;101067.19;105466;1258;69987;-47
2023/07/09 08:40:32;;;;;;;5.20;4.50;;;;;;;25.94;51.05;101063.30;105577;1254;69878;-47
2023/07/09 08:43:12;;;;;;;7.40;4.10;;;;;;;26.12;50.67;101066.73;105457;1257;73820;-49
2023/07/09 08:45:50;;;;;;;4.00;3.60;;;;;;;26.27;49.66;101062.25;105501;1257;82490;-49
2023/07/09 08:48:32;;;;;;;4.90;3.80;;;;;;;26.42;48.62;101063.30;105851;1256;73522;-46
2023/07/09 08:51:38;;;;;;;6.80;3.70;;;;;;;26.54;48.44;101065.35;105550;1257;69977;-46
2023/07/09 08:54:16;;;;;;;5.50;3.60;;;;;;;26.74;47.72;101063.59;105672;1257;70757;-47
2023/07/09 08:56:45;;;;;;;3.60;3.30;;;;;;;26.91;46.87;101064.15;105423;1256;73030;-47
2023/07/09 08:59:17;;;;;;;9.10;3.90;;;;;;;27.09;46.54;101067.77;105448;1254;83396;-46
2023/07/09 09:01:58;;;;;;;6.60;3.50;;;;;;;27.26;45.92;101067.95;105526;1257;73557;-47
2023/07/09 09:04:30;;;;;;;4.10;3.40;;;;;;;27.40;45.65;101070.38;105957;1253;69915;-47
2023/07/09 09:07:01;;;;;;;6.20;3.40;;;;;;;27.56;45.29;101068.30;105803;1253;70052;-47
2023/07/09 09:09:40;;;;;;;5.60;3.30;;;;;;;27.70;44.84;101071.96;105429;1253;74205;-46
2023/07/09 09:12:17;;;;;;;3.70;3.30;;;;;;;27.85;44.30;101067.38;105816;1253;83698;-49
2023/07/09 09:14:58;;;;;;;3.50;3.00;;;;;;;27.98;43.82;101066.64;105492;1257;73396;-49
2023/07/09 09:17:29;;;;;;;3.80;2.70;;;;;;;28.11;43.13;101069.27;105482;1255;70004;-48
2023/07/09 09:20:03;;;;;;;4.70;3.30;;;;;;;28.21;42.92;101066.70;105393;1253;69981;-51
2023/07/09 09:22:40;;;;;;;4.30;3.50;;;;;;;28.32;42.41;101064.25;105515;1253;72931;-47
2023/07/09 09:25:09;;;;;;;6.30;4.00;;;;;;;28.48;42.50;101059.41;105549;1257;82469;-47
2023/07/09 09:27:38;;;;;;;8.10;4.30;;;;;;;28.61;41.70;101064.79;105484;1258;72668;-49
2023/07/09 09:30:18;;;;;;;7.20;4.40;;;;;;;28.65;41.72;101067.05;105358;1257;70113;-48
2023/07/09 09:32:52;;;;;;;13.20;3.70;;;;;;;28.74;41.55;101063.40;105422;1253;69966;-49
2023/07/09 09:35:44;;;;;;;6.00;3.60;;;;;;;28.87;41.28;101069.25;105739;1257;73121;-50
2023/07/09 09:38:16;;;;;;;6.70;3.40;;;;;;;29.03;40.48;101069.73;105372;1255;82529;-50
2023/07/09 09:40:45;;;;;;;5.10;3.50;;;;;;;29.13;39.86;101069.31;105426;1254;73761;-50
2023/07/09 09:43:19;;;;;;;10.80;3.80;;;;;;;29.25;39.71;101069.94;105410;1257;70011;-50
2023/07/09 09:45:49;;;;;;;5.20;3.40;;;;;;;29.36;39.09;101068.06;105606;1253;69932;-50
2023/07/09 09:48:20;;;;;;;4.20;3.20;;;;;;;29.46;38.96;101074.11;105465;1255;72513;-50
2023/07/09 09:50:48;;;;;;;6.50;3.50;;;;;;;29.57;38.65;101072.73;105634;1257;83485;-51
2023/07/09 09:53:21;;;;;;;7.10;3.20;;;;;;;29.68;38.70;101068.30;105408;1254;73691;-49
2023/07/09 09:55:52;;;;;;;9.70;3.30;;;;;;;29.84;38.56;101073.45;105395;1258;69974;-50
2023/07/09 09:58:27;;;;;;;6.00;3.20;;;;;;;29.97;37.98;101069.11;105415;1253;70101;-50
2023/07/09 10:00:57;;;;;;;4.90;3.10;;;;;;;30.14;37.87;101070.71;105472;1253;73018;-50
2023/07/09 10:03:37;;;;;;;4.40;3.30;;;;;;;30.32;37.49;101070.04;105391;1257;83437;-51
2023/07/09 10:06:12;;;;;;;4.70;3.10;;;;;;;30.44;37.23;101067.05;105423;1253;73997;-50
2023/07/09 10:09:08;;;;;;;3.80;3.00;;;;;;;30.56;37.27;101068.08;105392;1253;70037;-49
2023/07/09 10:11:56;;;;;;;8.30;3.10;;;;;;;30.61;36.43;101066.19;105452;1254;69874;-51
2023/07/09 10:14:38;;;;;;;6.20;3.30;;;;;;;30.75;36.45;101065.77;105468;1257;74126;-50
2023/07/09 10:18:02;;;;;;;3.40;2.60;;;;;;;30.88;35.84;101061.93;105441;1254;83339;-50
2023/07/09 10:20:38;;;;;;;4.10;2.90;;;;;;;31.09;35.91;101070.79;104857;1264;73211;-50
2023/07/09 10:23:27;;;;;;;4.20;2.80;;;;;;;31.27;35.78;101069.19;105396;1256;70028;-50
2023/07/09 10:26:06;;;;;;;3.70;3.00;;;;;;;31.51;35.14;101071.08;105323;1255;69944;-49
2023/07/09 10:28:49;;;;;;;4.00;2.90;;;;;;;31.68;34.51;101069.23;105383;1255;72535;-49
2023/07/09 10:31:21;;;;;;;5.30;2.90;;;;;;;31.80;33.75;101065.29;105315;1257;83209;-50
2023/07/09 10:34:01;;;;;;;5.50;2.90;;;;;;;32.00;33.87;101065.74;105574;1253;73205;-49
2023/07/09 10:36:58;;;;;;;4.80;3.10;;;;;;;32.30;33.81;101060.10;105362;1257;70699;-49
2023/07/09 10:39:31;;;;;;;3.00;2.70;;;;;;;32.66;33.30;101060.31;105538;1256;69964;-51
2023/07/09 10:42:01;;;;;;;3.20;2.40;;;;;;;33.00;32.35;101055.31;105400;1253;74202;-50
2023/07/09 10:44:36;;;;;;;3.40;2.60;;;;;;;33.27;31.31;101055.14;105383;1253;83758;-51
2023/07/09 10:47:10;;;;;;;4.30;2.40;;;;;;;33.54;31.00;101054.22;105238;1257;74033;-50
2023/07/09 10:49:41;;;;;;;3.40;2.40;;;;;;;33.87;31.15;101051.95;105488;1253;69898;-49
2023/07/09 10:52:24;;;;;;;4.40;3.00;;;;;;;34.20;30.80;101053.66;105446;1253;70336;-50
2023/07/09 10:54:57;;;;;;;3.10;2.50;;;;;;;34.48;30.07;101050.95;105452;1253;74170;-51
2023/07/09 10:57:31;;;;;;;4.70;2.90;;;;;;;34.72;29.44;101050.63;105401;1257;82937;-50
2023/07/09 10:59:59;;;;;;;5.70;2.70;;;;;;;34.96;28.81;101047.80;105366;1256;73109;-51
2023/07/09 11:02:31;;;;;;;;;;;;;;;35.13;28.30;101045.39;105317;1253;69856;-51
2023/07/09 11:05:02;;;;;;;3.20;2.60;;;;;;;35.38;28.15;101042.64;105411;1257;69881;-50
2023/07/09 11:07:49;;;;;;;4.00;2.60;;;;;;;35.65;27.83;101046.48;105406;1257;72886;-50
2023/07/09 11:10:25;;;;;;;2.90;2.60;;;;;;;35.74;27.74;101043.86;105227;1254;83460;-51
2023/07/09 11:13:03;;;;;;;3.70;2.60;;;;;;;36.00;27.62;101044.36;105645;1257;74104;-48
2023/07/09 11:15:33;;;;;;;;;;;;;;;36.22;27.58;101041.70;105433;1253;69818;-48
2023/07/09 11:18:04;;;;;;;3.40;2.50;;;;;;;36.46;27.36;101041.19;105310;1258;69927;-49
2023/07/09 11:20:42;;;;;;;3.50;2.20;;;;;;;36.62;27.21;101041.02;105407;1257;73522;-48
2023/07/09 11:23:19;;;;;;;3.60;2.30;;;;;;;36.83;25.68;101034.36;105361;1257;83320;-50
2023/07/09 11:26:01;;;;;;;2.70;2.30;;;;;;;37.15;25.04;101033.27;105392;1257;73973;-48
2023/07/09 11:28:37;;;;;;;3.00;2.20;;;;;;;37.46;24.91;101028.41;105570;1254;69933;-50
2023/07/09 11:31:17;;;;;;;3.10;1.90;;;;;;;37.70;24.24;101033.79;105473;1253;69994;-49
2023/07/09 11:33:48;;;;;;;2.50;2.00;;;;;;;37.81;23.57;101036.45;105442;1254;74176;-48
2023/07/09 11:36:28;;;;;;;1.80;1.70;;;;;;;37.82;22.86;101038.35;105429;1253;82593;-48